createdAt,value
2023-01-17T00:02:19.102Z,66.63
2023-01-17T00:05:04.795Z,66.45
2023-01-17T00:07:50.536Z,66.57
2023-01-17T00:10:23.091Z,65.00
2023-01-17T00:13:00.972Z,65.03
2023-01-17T00:15:29.528Z,65.06
2023-01-17T00:17:56.797Z,64.41
2023-01-17T00:20:47.620Z,63.82
2023-01-17T00:23:38.739Z,63.26
2023-01-17T00:26:10.614Z,63.23
2023-01-17T00:28:39.224Z,64.13
2023-01-17T00:31:07.933Z,64.84
2023-01-17T00:33:35.398Z,65.45
2023-01-17T00:36:03.559Z,64.59
2023-01-17T00:38:32.858Z,64.15
2023-01-17T00:41:10.876Z,65.24
2023-01-17T00:43:56.839Z,64.30
2023-01-17T00:46:42.506Z,63.84
2023-01-17T00:49:28.359Z,63.41
2023-01-17T00:52:13.755Z,63.80
2023-01-17T00:54:59.416Z,64.07
2023-01-17T00:57:44.759Z,63.53
2023-01-17T01:00:30.579Z,64.59
2023-01-17T01:03:15.853Z,65.37
2023-01-17T01:06:01.549Z,64.44
2023-01-17T01:08:48.798Z,64.18
2023-01-17T01:11:37.483Z,63.36
2023-01-17T01:14:23.840Z,61.95
2023-01-17T01:17:09.291Z,62.13
2023-01-17T01:19:54.373Z,62.61
2023-01-17T01:22:39.463Z,62.99
2023-01-17T01:25:25.216Z,63.26
2023-01-17T01:28:11.343Z,64.48
2023-01-17T01:30:56.616Z,65.21
2023-01-17T01:33:23.332Z,64.72
2023-01-17T01:35:53.726Z,64.65
2023-01-17T01:38:23.472Z,62.62
2023-01-17T01:40:52.945Z,63.34
2023-01-17T01:43:38.100Z,62.93
2023-01-17T01:46:05.958Z,62.99
2023-01-17T01:48:37.691Z,63.94
2023-01-17T01:51:10.119Z,64.87
2023-01-17T01:53:40.898Z,64.37
2023-01-17T01:56:11.564Z,64.53
2023-01-17T01:58:40.247Z,64.79
2023-01-17T02:01:08.627Z,64.83
2023-01-17T02:03:37.802Z,65.79
2023-01-17T02:06:22.933Z,65.85
2023-01-17T02:08:49.739Z,65.75
2023-01-17T02:11:16.726Z,66.07
2023-01-17T02:13:43.748Z,65.68
2023-01-17T02:16:19.356Z,63.99
2023-01-17T02:18:51.824Z,63.71
2023-01-17T02:21:27.281Z,63.68
2023-01-17T02:24:15.615Z,60.99
2023-01-17T02:26:52.817Z,60.20
2023-01-17T02:29:31.741Z,61.21
2023-01-17T02:32:10.741Z,62.19
2023-01-17T02:34:46.549Z,62.66
2023-01-17T02:37:16.021Z,62.84
2023-01-17T02:39:59.751Z,63.44
2023-01-17T02:42:34.089Z,63.10
2023-01-17T02:45:02.699Z,61.61
2023-01-17T02:47:31.742Z,62.18
2023-01-17T02:50:07.612Z,63.02
2023-01-17T02:52:49.562Z,62.16
2023-01-17T02:55:29.755Z,63.52
2023-01-17T02:58:08.355Z,63.28
2023-01-17T03:00:44.368Z,64.29
2023-01-17T03:03:35.274Z,63.74
2023-01-17T03:06:23.037Z,62.66
2023-01-17T03:08:51.715Z,62.41
2023-01-17T03:11:18.602Z,62.57
2023-01-17T03:13:45.416Z,63.22
2023-01-17T03:16:17.954Z,62.74
2023-01-17T03:18:45.039Z,63.34
2023-01-17T03:21:11.735Z,63.21
2023-01-17T03:23:38.553Z,63.28
2023-01-17T03:26:05.505Z,64.17
2023-01-17T03:28:32.477Z,63.93
2023-01-17T03:30:59.285Z,64.54
2023-01-17T03:33:26.534Z,64.92
2023-01-17T03:35:54.664Z,64.12
2023-01-17T03:38:21.431Z,64.92
2023-01-17T03:40:48.181Z,65.46
2023-01-17T03:43:15.016Z,65.82
2023-01-17T03:45:41.830Z,65.32
2023-01-17T03:48:08.692Z,64.62
2023-01-17T03:50:35.560Z,63.93
2023-01-17T03:53:02.324Z,64.35
2023-01-17T03:55:29.039Z,65.22
2023-01-17T03:57:55.752Z,66.06
2023-01-17T04:00:22.716Z,67.73
2023-01-17T04:02:49.638Z,67.93
2023-01-17T04:05:17.124Z,68.55
2023-01-17T04:07:44.221Z,68.80
2023-01-17T04:14:29.740Z,67.73
2023-01-17T04:28:01.327Z,70.25
2023-01-17T04:34:25.517Z,70.71
2023-01-17T04:50:23.455Z,72.30
2023-01-17T04:52:57.749Z,70.80
2023-01-17T04:58:44.596Z,70.29
2023-01-17T05:05:47.097Z,73.54
2023-01-17T05:14:44.218Z,76.06
2023-01-17T05:17:36.525Z,76.39
2023-01-17T05:20:15.062Z,77.77
2023-01-17T05:25:49.511Z,78.86
2023-01-17T05:28:33.490Z,78.86
2023-01-17T05:47:13.867Z,83.30
2023-01-17T05:49:45.106Z,84.10
2023-01-17T05:55:59.291Z,84.46
2023-01-17T05:58:55.538Z,83.51
2023-01-17T06:01:59.541Z,83.18
2023-01-17T06:04:50.576Z,84.07
2023-01-17T06:07:48.119Z,84.92
2023-01-17T06:11:00.758Z,84.67
2023-01-17T06:17:23.233Z,83.59
2023-01-17T06:21:16.858Z,83.09
2023-01-17T06:24:22.617Z,83.50
2023-01-17T06:34:11.371Z,83.96
2023-01-17T06:37:07.647Z,83.84
2023-01-17T06:46:54.424Z,83.50
2023-01-17T06:57:21.515Z,83.29
2023-01-17T07:00:22.933Z,83.86
2023-01-17T07:03:23.447Z,84.00
2023-01-17T07:10:15.968Z,83.20
2023-01-17T07:16:21.120Z,83.77
2023-01-17T07:23:10.211Z,83.43
2023-01-17T07:29:33.289Z,81.29
2023-01-17T07:33:05.939Z,81.65
2023-01-17T07:36:14.725Z,80.72
2023-01-17T07:39:06.350Z,81.08
2023-01-17T07:41:53.060Z,80.43
2023-01-17T07:44:43.773Z,80.81
2023-01-17T07:47:48.388Z,81.01
2023-01-17T07:50:33.322Z,79.80
2023-01-17T08:08:11.480Z,82.10
2023-01-17T08:10:48.403Z,82.28
2023-01-17T08:13:17.039Z,81.47
2023-01-17T08:16:06.738Z,82.23
2023-01-17T08:18:51.045Z,82.50
2023-01-17T08:21:25.309Z,84.38
2023-01-17T08:27:20.554Z,84.26
2023-01-17T08:29:50.172Z,84.90
2023-01-17T08:32:44.249Z,85.04
2023-01-17T08:35:42.719Z,84.48
2023-01-17T08:38:40.710Z,85.46
2023-01-17T08:41:26.455Z,86.09
2023-01-17T08:44:14.234Z,86.02
2023-01-17T08:47:31.191Z,86.17
2023-01-17T08:50:38.231Z,86.13
2023-01-17T08:53:36.091Z,85.68
2023-01-17T08:56:17.674Z,85.35
2023-01-17T08:59:18.940Z,84.40
2023-01-17T09:02:10.406Z,84.56
2023-01-17T09:05:05.659Z,84.92
2023-01-17T09:08:17.338Z,85.36
2023-01-17T09:11:28.296Z,85.93
2023-01-17T09:14:04.558Z,86.25
2023-01-17T09:17:00.778Z,88.19
2023-01-17T19:20:47.408Z,86.98
2023-01-17T19:23:14.257Z,85.71
2023-01-17T19:25:41.060Z,86.39
2023-01-17T19:28:08.467Z,86.91
2023-01-17T19:30:39.079Z,87.30
2023-01-17T19:33:06.466Z,87.47
2023-01-17T19:35:33.345Z,88.07
2023-01-17T19:38:00.416Z,86.59
2023-01-17T19:40:27.374Z,87.19
2023-01-17T19:42:56.277Z,87.21
2023-01-17T19:45:23.138Z,87.31
2023-01-17T19:47:50.046Z,85.85
2023-01-17T19:50:18.765Z,80.80
2023-01-17T19:52:45.649Z,83.05
2023-01-17T19:55:12.592Z,80.18
2023-01-17T19:57:40.638Z,82.45
2023-01-17T20:00:12.441Z,82.97
2023-01-17T20:02:40.015Z,84.60
2023-01-17T20:05:07.446Z,83.34
2023-01-17T20:07:35.064Z,83.42
2023-01-17T20:10:02.092Z,83.82
2023-01-17T20:12:29.070Z,83.99
2023-01-17T20:14:56.019Z,83.92
2023-01-17T20:17:23.083Z,84.25
2023-01-17T20:19:52.320Z,84.30
2023-01-17T20:22:19.451Z,84.59
2023-01-17T20:24:47.171Z,84.83
2023-01-17T20:27:14.165Z,85.40
2023-01-17T20:29:41.184Z,85.36
2023-01-17T20:32:08.160Z,85.54
2023-01-17T20:34:35.839Z,85.49
2023-01-17T20:37:03.070Z,86.45
2023-01-17T20:39:30.569Z,85.33
2023-01-17T20:41:57.799Z,86.02
2023-01-17T20:44:25.667Z,86.20
2023-01-17T20:46:52.712Z,85.92
2023-01-17T20:49:20.094Z,86.47
2023-01-17T20:51:47.436Z,87.22
2023-01-17T20:54:17.327Z,87.61
2023-01-17T20:56:47.444Z,87.86
2023-01-17T20:59:20.102Z,87.52
2023-01-17T21:01:48.127Z,87.51
2023-01-17T21:04:17.220Z,88.10
2023-01-17T21:06:46.926Z,87.85
2023-01-17T21:09:15.624Z,87.06
2023-01-17T21:11:42.861Z,85.86
2023-01-17T21:14:09.989Z,85.39
2023-01-17T21:16:36.972Z,86.04
2023-01-17T21:19:06.809Z,87.76
2023-01-17T21:21:33.724Z,87.61
2023-01-17T21:24:00.965Z,88.02
2023-01-17T21:26:30.652Z,87.52
2023-01-17T21:29:00.169Z,86.66
2023-01-17T21:31:33.576Z,86.39
2023-01-17T21:34:05.910Z,86.86
2023-01-17T21:36:36.739Z,86.74
2023-01-17T21:39:06.909Z,86.46
2023-01-17T21:41:40.411Z,86.63
2023-01-17T21:44:19.600Z,86.24
2023-01-17T21:46:47.568Z,85.63
2023-01-17T21:49:14.740Z,84.78
2023-01-17T21:51:53.119Z,84.37
2023-01-17T21:54:40.918Z,84.57
2023-01-17T21:57:27.250Z,83.16
2023-01-17T21:59:54.432Z,84.93
2023-01-17T22:02:26.692Z,86.02
2023-01-17T22:04:56.400Z,85.55
2023-01-17T22:07:29.327Z,85.75
2023-01-17T22:09:58.870Z,85.12
2023-01-17T22:12:25.899Z,83.55
2023-01-17T22:14:53.610Z,83.96
2023-01-17T22:17:22.336Z,83.76
2023-01-17T22:19:53.432Z,84.27
2023-01-17T22:22:23.168Z,84.41
2023-01-17T22:24:52.676Z,84.65
2023-01-17T22:27:20.634Z,84.63
2023-01-17T22:29:47.536Z,84.95
2023-01-17T22:32:14.330Z,84.97
2023-01-17T22:34:41.183Z,83.88
2023-01-17T22:37:11.237Z,84.33
2023-01-17T22:39:40.638Z,84.56
2023-01-17T22:42:07.835Z,84.92
2023-01-17T22:44:35.066Z,84.61
2023-01-17T22:47:02.041Z,84.37
2023-01-17T22:49:28.743Z,84.58
2023-01-17T22:51:55.530Z,82.62
2023-01-17T22:54:23.017Z,82.49
2023-01-17T22:56:49.842Z,83.00
2023-01-17T22:59:16.595Z,82.81
2023-01-17T23:01:43.577Z,82.77
2023-01-17T23:04:13.784Z,82.95
2023-01-17T23:06:41.674Z,83.19
2023-01-17T23:09:11.558Z,83.28
2023-01-17T23:11:44.192Z,83.05
2023-01-17T23:14:12.939Z,83.21
2023-01-17T23:17:00.674Z,83.31
2023-01-17T23:19:29.922Z,82.98
2023-01-17T23:22:16.808Z,83.53
2023-01-17T23:24:57.786Z,82.34
2023-01-17T23:27:50.270Z,83.69
2023-01-17T23:30:17.457Z,84.73
2023-01-17T23:32:50.679Z,83.07
2023-01-17T23:35:19.598Z,82.54
2023-01-17T23:38:05.303Z,82.24
2023-01-17T23:40:34.049Z,83.44
2023-01-17T23:43:19.555Z,84.49
2023-01-17T23:45:46.783Z,84.76
2023-01-17T23:48:13.652Z,84.66
2023-01-17T23:50:42.583Z,84.20
2023-01-17T23:53:09.975Z,83.95
2023-01-17T23:55:39.342Z,83.50
2023-01-17T23:58:07.639Z,83.62
